sensor_id;sensor_type;location;lat;lon;timestamp;pressure;altitude;pressure_sealevel;temperature;humidity
63088;BME280;49173;43.164;27.786;2023-06-04T00:00:56;100639.41;;;19.96;79.54
63088;BME280;49173;43.164;27.786;2023-06-04T00:03:24;100640.53;;;19.94;79.13
63088;BME280;49173;43.164;27.786;2023-06-04T00:05:50;100641.81;;;19.90;79.38
63088;BME280;49173;43.164;27.786;2023-06-04T00:08:18;100641.81;;;19.90;79.47
63088;BME280;49173;43.164;27.786;2023-06-04T00:10:47;100643.22;;;19.84;80.08
63088;BME280;49173;43.164;27.786;2023-06-04T00:13:13;100650.41;;;19.85;80.08
63088;BME280;49173;43.164;27.786;2023-06-04T00:15:39;100637.50;;;19.87;80.06
63088;BME280;49173;43.164;27.786;2023-06-04T00:18:08;100643.84;;;19.88;80.07
63088;BME280;49173;43.164;27.786;2023-06-04T00:20:33;100646.41;;;19.89;80.29
63088;BME280;49173;43.164;27.786;2023-06-04T00:23:08;100641.97;;;19.88;80.48
63088;BME280;49173;43.164;27.786;2023-06-04T00:25:35;100643.69;;;19.89;80.78
63088;BME280;49173;43.164;27.786;2023-06-04T00:28:03;100649.72;;;19.93;81.08
63088;BME280;49173;43.164;27.786;2023-06-04T00:30:29;100649.56;;;19.94;81.02
63088;BME280;49173;43.164;27.786;2023-06-04T00:32:58;100653.28;;;19.93;81.56
63088;BME280;49173;43.164;27.786;2023-06-04T00:35:24;100652.19;;;19.96;82.08
63088;BME280;49173;43.164;27.786;2023-06-04T00:37:50;100641.84;;;19.99;81.93
63088;BME280;49173;43.164;27.786;2023-06-04T00:40:16;100650.75;;;20.01;82.56
63088;BME280;49173;43.164;27.786;2023-06-04T00:42:44;100661.66;;;20.01;82.47
63088;BME280;49173;43.164;27.786;2023-06-04T00:45:16;100658.50;;;20.06;82.26
63088;BME280;49173;43.164;27.786;2023-06-04T00:47:47;100653.66;;;20.10;82.05
63088;BME280;49173;43.164;27.786;2023-06-04T00:50:13;100654.50;;;20.10;82.14
63088;BME280;49173;43.164;27.786;2023-06-04T00:52:43;100655.38;;;20.11;81.76
63088;BME280;49173;43.164;27.786;2023-06-04T00:55:12;100658.25;;;20.09;81.81
63088;BME280;49173;43.164;27.786;2023-06-04T00:57:41;100665.81;;;20.06;82.22
63088;BME280;49173;43.164;27.786;2023-06-04T01:00:07;100658.47;;;19.96;82.81
63088;BME280;49173;43.164;27.786;2023-06-04T01:02:37;100665.19;;;19.92;83.54
63088;BME280;49173;43.164;27.786;2023-06-04T01:05:16;100663.56;;;19.80;84.37
63088;BME280;49173;43.164;27.786;2023-06-04T01:07:45;100660.28;;;19.86;84.40
63088;BME280;49173;43.164;27.786;2023-06-04T01:10:13;100662.00;;;19.87;84.67
63088;BME280;49173;43.164;27.786;2023-06-04T01:12:43;100665.03;;;19.84;84.16
63088;BME280;49173;43.164;27.786;2023-06-04T01:15:10;100663.28;;;19.83;83.08
63088;BME280;49173;43.164;27.786;2023-06-04T01:17:41;100666.00;;;19.73;83.93
63088;BME280;49173;43.164;27.786;2023-06-04T01:20:34;100659.94;;;19.70;84.58
63088;BME280;49173;43.164;27.786;2023-06-04T01:25:48;100676.47;;;19.78;84.37
63088;BME280;49173;43.164;27.786;2023-06-04T01:28:15;100681.91;;;19.78;83.89
63088;BME280;49173;43.164;27.786;2023-06-04T01:30:49;100678.47;;;19.76;83.09
63088;BME280;49173;43.164;27.786;2023-06-04T01:33:22;100678.00;;;19.71;83.01
63088;BME280;49173;43.164;27.786;2023-06-04T01:35:55;100691.34;;;19.74;82.08
63088;BME280;49173;43.164;27.786;2023-06-04T01:38:21;100683.31;;;19.72;81.60
63088;BME280;49173;43.164;27.786;2023-06-04T01:40:50;100684.06;;;19.74;81.82
63088;BME280;49173;43.164;27.786;2023-06-04T01:43:20;100686.50;;;19.78;81.47
63088;BME280;49173;43.164;27.786;2023-06-04T01:45:45;100686.50;;;19.78;80.78
63088;BME280;49173;43.164;27.786;2023-06-04T01:48:12;100694.94;;;19.74;80.50
63088;BME280;49173;43.164;27.786;2023-06-04T01:50:38;100699.63;;;19.72;80.37
63088;BME280;49173;43.164;27.786;2023-06-04T01:53:04;100702.66;;;19.69;80.17
63088;BME280;49173;43.164;27.786;2023-06-04T01:55:29;100690.50;;;19.73;80.28
63088;BME280;49173;43.164;27.786;2023-06-04T01:57:59;100706.69;;;19.75;80.36
63088;BME280;49173;43.164;27.786;2023-06-04T02:00:25;100705.56;;;19.78;80.54
63088;BME280;49173;43.164;27.786;2023-06-04T02:02:52;100702.44;;;19.82;80.17
63088;BME280;49173;43.164;27.786;2023-06-04T02:05:21;100707.75;;;19.84;79.65
63088;BME280;49173;43.164;27.786;2023-06-04T02:07:47;100708.31;;;19.87;79.26
63088;BME280;49173;43.164;27.786;2023-06-04T02:10:16;100716.38;;;19.89;78.16
63088;BME280;49173;43.164;27.786;2023-06-04T02:12:57;100711.41;;;19.73;78.10
63088;BME280;49173;43.164;27.786;2023-06-04T02:15:25;100709.97;;;19.69;77.97
63088;BME280;49173;43.164;27.786;2023-06-04T02:17:58;100709.63;;;19.62;77.37
63088;BME280;49173;43.164;27.786;2023-06-04T02:20:31;100716.44;;;19.57;77.53
63088;BME280;49173;43.164;27.786;2023-06-04T02:22:57;100714.09;;;19.52;78.08
63088;BME280;49173;43.164;27.786;2023-06-04T02:25:23;100722.69;;;19.47;77.84
63088;BME280;49173;43.164;27.786;2023-06-04T02:27:49;100728.50;;;19.43;78.63
63088;BME280;49173;43.164;27.786;2023-06-04T02:30:15;100727.50;;;19.44;78.04
63088;BME280;49173;43.164;27.786;2023-06-04T02:32:45;100733.56;;;19.47;78.28
63088;BME280;49173;43.164;27.786;2023-06-04T02:35:11;100737.41;;;19.45;78.21
63088;BME280;49173;43.164;27.786;2023-06-04T02:37:37;100745.19;;;19.49;78.27
63088;BME280;49173;43.164;27.786;2023-06-04T02:40:03;100743.94;;;19.54;77.95
63088;BME280;49173;43.164;27.786;2023-06-04T02:42:29;100751.09;;;19.55;77.56
63088;BME280;49173;43.164;27.786;2023-06-04T02:44:59;100751.63;;;19.48;76.56
63088;BME280;49173;43.164;27.786;2023-06-04T02:47:29;100743.59;;;19.47;76.54
63088;BME280;49173;43.164;27.786;2023-06-04T02:49:55;100760.19;;;19.44;76.47
63088;BME280;49173;43.164;27.786;2023-06-04T02:52:24;100755.16;;;19.39;75.93
63088;BME280;49173;43.164;27.786;2023-06-04T02:54:51;100756.25;;;19.37;75.80
63088;BME280;49173;43.164;27.786;2023-06-04T02:57:17;100759.97;;;19.36;76.50
63088;BME280;49173;43.164;27.786;2023-06-04T02:59:43;100758.13;;;19.36;76.24
63088;BME280;49173;43.164;27.786;2023-06-04T03:02:09;100764.56;;;19.35;76.52
63088;BME280;49173;43.164;27.786;2023-06-04T03:04:45;100770.16;;;19.34;76.20
63088;BME280;49173;43.164;27.786;2023-06-04T03:07:22;100756.91;;;19.29;75.85
63088;BME280;49173;43.164;27.786;2023-06-04T03:09:52;100767.34;;;19.24;75.78
63088;BME280;49173;43.164;27.786;2023-06-04T03:12:21;100759.19;;;19.24;75.50
63088;BME280;49173;43.164;27.786;2023-06-04T03:14:47;100764.88;;;19.21;76.01
63088;BME280;49173;43.164;27.786;2023-06-04T03:17:13;100778.34;;;19.23;76.12
63088;BME280;49173;43.164;27.786;2023-06-04T03:19:41;100770.81;;;19.26;76.06
63088;BME280;49173;43.164;27.786;2023-06-04T03:22:09;100774.09;;;19.30;75.83
63088;BME280;49173;43.164;27.786;2023-06-04T03:24:39;100776.72;;;19.31;76.10
63088;BME280;49173;43.164;27.786;2023-06-04T03:27:08;100778.44;;;19.32;75.93
63088;BME280;49173;43.164;27.786;2023-06-04T03:29:36;100771.72;;;19.36;75.93
63088;BME280;49173;43.164;27.786;2023-06-04T03:32:03;100775.06;;;19.40;76.16
63088;BME280;49173;43.164;27.786;2023-06-04T03:34:29;100791.13;;;19.43;75.61
63088;BME280;49173;43.164;27.786;2023-06-04T03:36:58;100790.25;;;19.42;74.55
63088;BME280;49173;43.164;27.786;2023-06-04T03:39:31;100777.66;;;19.41;74.45
63088;BME280;49173;43.164;27.786;2023-06-04T03:41:57;100777.66;;;19.41;74.32
63088;BME280;49173;43.164;27.786;2023-06-04T03:44:23;100779.38;;;19.42;74.63
63088;BME280;49173;43.164;27.786;2023-06-04T03:46:49;100776.78;;;19.41;74.52
63088;BME280;49173;43.164;27.786;2023-06-04T03:49:15;100782.81;;;19.44;74.10
63088;BME280;49173;43.164;27.786;2023-06-04T03:51:43;100791.66;;;19.37;73.92
63088;BME280;49173;43.164;27.786;2023-06-04T03:54:12;100790.78;;;19.36;74.40
63088;BME280;49173;43.164;27.786;2023-06-04T03:56:44;100787.06;;;19.37;74.19
63088;BME280;49173;43.164;27.786;2023-06-04T03:59:10;100785.69;;;19.43;74.39
63088;BME280;49173;43.164;27.786;2023-06-04T04:01:39;100784.31;;;19.48;74.14
63088;BME280;49173;43.164;27.786;2023-06-04T04:04:05;100790.34;;;19.52;73.84
63088;BME280;49173;43.164;27.786;2023-06-04T04:06:31;100791.94;;;19.55;73.27
63088;BME280;49173;43.164;27.786;2023-06-04T04:08:57;100791.81;;;19.56;73.22
63088;BME280;49173;43.164;27.786;2023-06-04T04:11:23;100793.56;;;19.57;73.03
63088;BME280;49173;43.164;27.786;2023-06-04T04:13:49;100792.66;;;19.57;72.77
63088;BME280;49173;43.164;27.786;2023-06-04T04:16:15;100788.50;;;19.53;73.13
63088;BME280;49173;43.164;27.786;2023-06-04T04:18:44;100793.81;;;19.54;72.71
63088;BME280;49173;43.164;27.786;2023-06-04T04:21:13;100802.50;;;19.59;73.06
63088;BME280;49173;43.164;27.786;2023-06-04T04:23:40;100799.78;;;19.59;73.54
63088;BME280;49173;43.164;27.786;2023-06-04T04:26:07;100805.06;;;19.61;73.20
63088;BME280;49173;43.164;27.786;2023-06-04T04:28:36;100806.28;;;19.68;73.47
63088;BME280;49173;43.164;27.786;2023-06-04T04:31:03;100807.47;;;19.75;73.15
63088;BME280;49173;43.164;27.786;2023-06-04T04:33:31;100814.44;;;19.68;72.69
63088;BME280;49173;43.164;27.786;2023-06-04T04:35:59;100807.63;;;19.73;72.40
63088;BME280;49173;43.164;27.786;2023-06-04T04:38:34;100816.75;;;19.72;72.01
63088;BME280;49173;43.164;27.786;2023-06-04T04:41:00;100818.94;;;19.79;73.12
63088;BME280;49173;43.164;27.786;2023-06-04T04:43:43;100818.91;;;19.90;72.56
63088;BME280;49173;43.164;27.786;2023-06-04T04:46:24;100811.06;;;19.96;71.45
63088;BME280;49173;43.164;27.786;2023-06-04T04:48:53;100814.50;;;19.98;71.16
63088;BME280;49173;43.164;27.786;2023-06-04T04:51:19;100830.13;;;19.96;71.58
63088;BME280;49173;43.164;27.786;2023-06-04T04:53:45;100823.69;;;19.97;71.48
63088;BME280;49173;43.164;27.786;2023-06-04T04:56:11;100828.59;;;20.03;72.19
63088;BME280;49173;43.164;27.786;2023-06-04T04:58:37;100821.47;;;20.12;70.88
63088;BME280;49173;43.164;27.786;2023-06-04T05:01:02;100826.06;;;20.12;70.04
63088;BME280;49173;43.164;27.786;2023-06-04T05:03:28;100826.41;;;19.97;69.73
63088;BME280;49173;43.164;27.786;2023-06-04T05:05:57;100822.81;;;19.76;68.77
63088;BME280;49173;43.164;27.786;2023-06-04T05:08:23;100820.09;;;19.76;69.46
63088;BME280;49173;43.164;27.786;2023-06-04T05:10:50;100819.94;;;19.78;68.65
63088;BME280;49173;43.164;27.786;2023-06-04T05:13:19;100822.09;;;19.74;68.67
63088;BME280;49173;43.164;27.786;2023-06-04T05:15:45;100818.22;;;19.77;69.31
63088;BME280;49173;43.164;27.786;2023-06-04T05:18:13;100815.13;;;19.81;68.18
63088;BME280;49173;43.164;27.786;2023-06-04T05:20:41;100823.00;;;19.84;67.55
63088;BME280;49173;43.164;27.786;2023-06-04T05:23:08;100828.41;;;19.95;68.13
63088;BME280;49173;43.164;27.786;2023-06-04T05:25:38;100842.75;;;19.97;66.82
63088;BME280;49173;43.164;27.786;2023-06-04T05:28:04;100839.06;;;19.87;66.46
63088;BME280;49173;43.164;27.786;2023-06-04T05:30:36;100845.47;;;19.77;65.64
63088;BME280;49173;43.164;27.786;2023-06-04T05:33:07;100840.34;;;19.83;65.95
63088;BME280;49173;43.164;27.786;2023-06-04T05:35:46;100855.31;;;19.89;66.14
63088;BME280;49173;43.164;27.786;2023-06-04T05:38:14;100847.53;;;19.84;65.89
63088;BME280;49173;43.164;27.786;2023-06-04T05:40:43;100853.44;;;19.89;65.77
63088;BME280;49173;43.164;27.786;2023-06-04T05:43:09;100851.72;;;19.88;66.59
63088;BME280;49173;43.164;27.786;2023-06-04T05:45:40;100863.41;;;20.00;67.01
63088;BME280;49173;43.164;27.786;2023-06-04T05:48:25;100858.16;;;19.87;66.55
63088;BME280;49173;43.164;27.786;2023-06-04T05:50:57;100864.03;;;20.03;67.55
63088;BME280;49173;43.164;27.786;2023-06-04T05:53:23;100862.53;;;20.20;67.87
63088;BME280;49173;43.164;27.786;2023-06-04T05:55:58;100858.94;;;20.41;67.03
63088;BME280;49173;43.164;27.786;2023-06-04T05:58:34;100857.34;;;20.59;65.26
63088;BME280;49173;43.164;27.786;2023-06-04T06:01:04;100864.72;;;20.78;64.67
63088;BME280;49173;43.164;27.786;2023-06-04T06:03:30;100879.59;;;20.95;63.20
63088;BME280;49173;43.164;27.786;2023-06-04T06:06:02;100880.16;;;20.98;63.94
63088;BME280;49173;43.164;27.786;2023-06-04T06:08:34;100864.25;;;21.13;63.08
63088;BME280;49173;43.164;27.786;2023-06-04T06:13:33;100878.28;;;21.29;62.70
63088;BME280;49173;43.164;27.786;2023-06-04T06:16:17;100875.25;;;21.32;61.17
63088;BME280;49173;43.164;27.786;2023-06-04T06:18:47;100875.69;;;21.47;62.26
63088;BME280;49173;43.164;27.786;2023-06-04T06:21:13;100870.53;;;21.63;60.35
63088;BME280;49173;43.164;27.786;2023-06-04T06:23:43;100875.00;;;21.74;60.08
63088;BME280;49173;43.164;27.786;2023-06-04T06:26:13;100879.88;;;21.90;60.21
63088;BME280;49173;43.164;27.786;2023-06-04T06:28:45;100874.81;;;22.05;59.78
63088;BME280;49173;43.164;27.786;2023-06-04T06:31:14;100868.22;;;22.07;58.27
63088;BME280;49173;43.164;27.786;2023-06-04T06:33:43;100877.44;;;22.16;57.88
63088;BME280;49173;43.164;27.786;2023-06-04T06:36:15;100873.09;;;22.23;56.88
63088;BME280;49173;43.164;27.786;2023-06-04T06:38:52;100877.44;;;22.16;55.32
63088;BME280;49173;43.164;27.786;2023-06-04T06:41:21;100876.00;;;22.02;55.66
63088;BME280;49173;43.164;27.786;2023-06-04T06:43:50;100874.25;;;21.91;55.01
63088;BME280;49173;43.164;27.786;2023-06-04T06:46:22;100871.09;;;21.96;55.56
63088;BME280;49173;43.164;27.786;2023-06-04T06:49:01;100878.19;;;22.08;56.18
63088;BME280;49173;43.164;27.786;2023-06-04T06:51:33;100867.94;;;22.20;54.81
63088;BME280;49173;43.164;27.786;2023-06-04T06:54:00;100874.94;;;22.32;55.75
63088;BME280;49173;43.164;27.786;2023-06-04T06:56:26;100872.75;;;22.45;53.82
63088;BME280;49173;43.164;27.786;2023-06-04T06:58:55;100879.34;;;22.53;53.14
63088;BME280;49173;43.164;27.786;2023-06-04T07:01:27;100879.19;;;22.54;52.43
63088;BME280;49173;43.164;27.786;2023-06-04T07:03:59;100876.78;;;22.51;52.95
63088;BME280;49173;43.164;27.786;2023-06-04T07:06:29;100882.94;;;22.53;52.55
63088;BME280;49173;43.164;27.786;2023-06-04T07:09:00;100887.28;;;22.56;51.76
63088;BME280;49173;43.164;27.786;2023-06-04T07:11:29;100884.25;;;22.59;53.11
63088;BME280;49173;43.164;27.786;2023-06-04T07:13:58;100887.50;;;22.72;52.00
63088;BME280;49173;43.164;27.786;2023-06-04T07:16:35;100887.09;;;22.67;50.72
63088;BME280;49173;43.164;27.786;2023-06-04T07:19:08;100889.13;;;22.55;50.80
63088;BME280;49173;43.164;27.786;2023-06-04T07:21:37;100893.03;;;22.62;51.46
63088;BME280;49173;43.164;27.786;2023-06-04T07:24:03;100890.53;;;22.69;52.33
63088;BME280;49173;43.164;27.786;2023-06-04T07:26:41;100897.28;;;22.74;52.08
63088;BME280;49173;43.164;27.786;2023-06-04T07:29:11;100889.50;;;22.80;51.57
63088;BME280;49173;43.164;27.786;2023-06-04T07:31:41;100899.63;;;22.69;51.77
63088;BME280;49173;43.164;27.786;2023-06-04T07:34:23;100904.47;;;22.75;51.54
63088;BME280;49173;43.164;27.786;2023-06-04T07:36:52;100900.75;;;22.77;52.29
63088;BME280;49173;43.164;27.786;2023-06-04T07:39:21;100899.25;;;22.82;51.56
63088;BME280;49173;43.164;27.786;2023-06-04T07:41:59;100900.59;;;22.68;50.09
63088;BME280;49173;43.164;27.786;2023-06-04T07:51:15;100915.75;;;23.10;51.27
63088;BME280;49173;43.164;27.786;2023-06-04T07:54:05;100899.97;;;23.21;50.35
63088;BME280;49173;43.164;27.786;2023-06-04T07:56:44;100899.81;;;23.23;50.06
63088;BME280;49173;43.164;27.786;2023-06-04T07:59:13;100906.63;;;23.19;49.49
63088;BME280;49173;43.164;27.786;2023-06-04T08:01:43;100901.03;;;23.11;49.22
63088;BME280;49173;43.164;27.786;2023-06-04T08:04:24;100913.25;;;23.16;47.85
63088;BME280;49173;43.164;27.786;2023-06-04T08:06:55;100911.34;;;23.26;49.39
63088;BME280;49173;43.164;27.786;2023-06-04T08:09:21;100918.72;;;23.44;49.42
63088;BME280;49173;43.164;27.786;2023-06-04T08:11:48;100913.72;;;23.57;49.48
63088;BME280;49173;43.164;27.786;2023-06-04T08:14:17;100914.66;;;23.75;49.28
63088;BME280;49173;43.164;27.786;2023-06-04T08:16:54;100920.59;;;23.89;48.27
63088;BME280;49173;43.164;27.786;2023-06-04T08:19:21;100921.38;;;23.81;49.27
63088;BME280;49173;43.164;27.786;2023-06-04T08:21:50;100914.78;;;23.74;49.03
63088;BME280;49173;43.164;27.786;2023-06-04T08:24:16;100917.94;;;23.79;47.65
63088;BME280;49173;43.164;27.786;2023-06-04T08:26:42;100916.13;;;23.88;48.04
63088;BME280;49173;43.164;27.786;2023-06-04T08:29:07;100921.22;;;24.00;49.63
63088;BME280;49173;43.164;27.786;2023-06-04T08:31:34;100919.63;;;24.16;49.59
63088;BME280;49173;43.164;27.786;2023-06-04T08:34:07;100924.31;;;24.23;50.06
63088;BME280;49173;43.164;27.786;2023-06-04T08:36:42;100928.88;;;24.32;49.42
63088;BME280;49173;43.164;27.786;2023-06-04T08:39:15;100926.41;;;24.29;49.36
63088;BME280;49173;43.164;27.786;2023-06-04T08:41:48;100920.06;;;24.29;49.29
63088;BME280;49173;43.164;27.786;2023-06-04T08:44:16;100918.78;;;24.33;49.31
63088;BME280;49173;43.164;27.786;2023-06-04T08:46:43;100920.63;;;24.32;48.73
63088;BME280;49173;43.164;27.786;2023-06-04T08:49:12;100923.28;;;24.24;47.31
63088;BME280;49173;43.164;27.786;2023-06-04T08:51:38;100921.56;;;24.23;47.70
63088;BME280;49173;43.164;27.786;2023-06-04T08:54:05;100921.63;;;24.31;49.19
63088;BME280;49173;43.164;27.786;2023-06-04T08:56:39;100927.25;;;24.40;48.35
63088;BME280;49173;43.164;27.786;2023-06-04T08:59:10;100936.50;;;24.38;47.95
63088;BME280;49173;43.164;27.786;2023-06-04T09:01:36;100938.28;;;24.48;47.88
63088;BME280;49173;43.164;27.786;2023-06-04T09:04:06;100935.59;;;24.38;47.26
63088;BME280;49173;43.164;27.786;2023-06-04T09:06:33;100934.97;;;24.44;47.88
63088;BME280;49173;43.164;27.786;2023-06-04T09:09:03;100937.94;;;24.51;50.49
63088;BME280;49173;43.164;27.786;2023-06-04T09:11:38;100929.34;;;24.46;48.32
63088;BME280;49173;43.164;27.786;2023-06-04T09:14:08;100936.69;;;24.45;49.76
63088;BME280;49173;43.164;27.786;2023-06-04T09:16:49;100937.56;;;24.46;49.38
63088;BME280;49173;43.164;27.786;2023-06-04T09:19:17;100925.25;;;24.50;50.14
63088;BME280;49173;43.164;27.786;2023-06-04T09:21:50;100923.56;;;24.57;50.69
63088;BME280;49173;43.164;27.786;2023-06-04T09:24:18;100927.22;;;24.65;50.33
63088;BME280;49173;43.164;27.786;2023-06-04T09:26:44;100928.09;;;24.66;49.08
63088;BME280;49173;43.164;27.786;2023-06-04T09:29:10;100925.41;;;24.74;50.06
63088;BME280;49173;43.164;27.786;2023-06-04T09:31:36;100929.88;;;24.75;51.01
63088;BME280;49173;43.164;27.786;2023-06-04T09:34:04;100933.47;;;24.76;50.93
63088;BME280;49173;43.164;27.786;2023-06-04T09:36:34;100937.13;;;24.84;49.93
63088;BME280;49173;43.164;27.786;2023-06-04T09:39:14;100933.56;;;24.92;49.61
63088;BME280;49173;43.164;27.786;2023-06-04T09:41:40;100927.91;;;24.93;48.95
63088;BME280;49173;43.164;27.786;2023-06-04T09:44:06;100947.78;;;24.87;49.69
63088;BME280;49173;43.164;27.786;2023-06-04T09:46:32;100941.94;;;24.82;49.61
63088;BME280;49173;43.164;27.786;2023-06-04T09:49:02;100933.47;;;24.76;50.87
63088;BME280;49173;43.164;27.786;2023-06-04T09:51:29;100941.59;;;24.85;50.42
63088;BME280;49173;43.164;27.786;2023-06-04T09:54:02;100932.53;;;24.93;49.81
63088;BME280;49173;43.164;27.786;2023-06-04T09:56:28;100934.59;;;24.91;49.94
63088;BME280;49173;43.164;27.786;2023-06-04T09:58:57;100941.63;;;24.93;50.49
63088;BME280;49173;43.164;27.786;2023-06-04T10:01:25;100936.69;;;24.97;48.55
63088;BME280;49173;43.164;27.786;2023-06-04T10:03:53;100936.34;;;25.00;48.64
63088;BME280;49173;43.164;27.786;2023-06-04T10:06:20;100935.31;;;25.01;49.35
63088;BME280;49173;43.164;27.786;2023-06-04T10:08:48;100932.50;;;25.11;49.87
63088;BME280;49173;43.164;27.786;2023-06-04T10:11:20;100933.56;;;25.18;48.23
63088;BME280;49173;43.164;27.786;2023-06-04T10:13:53;100935.25;;;25.11;47.55
63088;BME280;49173;43.164;27.786;2023-06-04T10:16:20;100929.41;;;25.14;46.83
63088;BME280;49173;43.164;27.786;2023-06-04T10:18:47;100929.41;;;25.14;47.10
63088;BME280;49173;43.164;27.786;2023-06-04T10:21:15;100933.00;;;25.14;47.16
63088;BME280;49173;43.164;27.786;2023-06-04T10:23:44;100933.53;;;25.10;46.84
63088;BME280;49173;43.164;27.786;2023-06-04T10:26:14;100935.19;;;25.03;47.59
63088;BME280;49173;43.164;27.786;2023-06-04T10:28:41;100935.72;;;25.06;47.09
63088;BME280;49173;43.164;27.786;2023-06-04T10:31:09;100935.06;;;25.12;47.65
63088;BME280;49173;43.164;27.786;2023-06-04T10:33:36;100936.47;;;25.16;47.88
63088;BME280;49173;43.164;27.786;2023-06-04T10:36:16;100944.22;;;25.29;47.50
63088;BME280;49173;43.164;27.786;2023-06-04T10:38:53;100926.06;;;25.36;46.85
63088;BME280;49173;43.164;27.786;2023-06-04T10:41:20;100933.63;;;25.34;46.56
63088;BME280;49173;43.164;27.786;2023-06-04T10:43:50;100938.78;;;25.37;46.01
63088;BME280;49173;43.164;27.786;2023-06-04T10:46:18;100932.75;;;25.34;47.14
63088;BME280;49173;43.164;27.786;2023-06-04T10:48:52;100933.31;;;25.37;45.73
63088;BME280;49173;43.164;27.786;2023-06-04T10:51:32;100943.78;;;25.50;46.17
63088;BME280;49173;43.164;27.786;2023-06-04T10:54:01;100931.97;;;25.58;45.02
63088;BME280;49173;43.164;27.786;2023-06-04T10:56:29;100928.53;;;25.64;45.16
63088;BME280;49173;43.164;27.786;2023-06-04T10:58:55;100938.69;;;25.71;44.63
63088;BME280;49173;43.164;27.786;2023-06-04T11:01:28;100933.84;;;25.57;44.69
63088;BME280;49173;43.164;27.786;2023-06-04T11:03:55;100932.66;;;25.52;45.09
63088;BME280;49173;43.164;27.786;2023-06-04T11:06:21;100932.50;;;25.69;46.27
63088;BME280;49173;43.164;27.786;2023-06-04T11:08:48;100935.31;;;25.86;44.81
63088;BME280;49173;43.164;27.786;2023-06-04T11:11:15;100935.84;;;25.97;44.10
63088;BME280;49173;43.164;27.786;2023-06-04T11:13:42;100936.53;;;25.99;44.56
63088;BME280;49173;43.164;27.786;2023-06-04T11:16:19;100937.44;;;26.08;44.58
63088;BME280;49173;43.164;27.786;2023-06-04T11:18:58;100948.25;;;26.10;44.46
63088;BME280;49173;43.164;27.786;2023-06-04T11:21:28;100941.88;;;26.17;44.37
63088;BME280;49173;43.164;27.786;2023-06-04T11:23:57;100949.78;;;26.20;43.92
63088;BME280;49173;43.164;27.786;2023-06-04T11:26:33;100945.84;;;26.23;43.53
63088;BME280;49173;43.164;27.786;2023-06-04T11:28:59;100951.19;;;26.16;43.73
63088;BME280;49173;43.164;27.786;2023-06-04T11:31:26;100952.38;;;26.14;42.89
63088;BME280;49173;43.164;27.786;2023-06-04T11:33:52;100947.03;;;26.20;42.32
63088;BME280;49173;43.164;27.786;2023-06-04T11:36:29;100943.44;;;26.20;42.92
63088;BME280;49173;43.164;27.786;2023-06-04T11:38:58;100942.38;;;26.21;42.65
63088;BME280;49173;43.164;27.786;2023-06-04T11:41:30;100953.06;;;26.24;43.29
63088;BME280;49173;43.164;27.786;2023-06-04T11:43:56;100952.03;;;26.33;45.07
63088;BME280;49173;43.164;27.786;2023-06-04T11:46:23;100958.06;;;26.53;43.16
63088;BME280;49173;43.164;27.786;2023-06-04T11:48:53;100957.56;;;26.58;41.88
63088;BME280;49173;43.164;27.786;2023-06-04T11:51:20;100952.75;;;26.43;41.61
63088;BME280;49173;43.164;27.786;2023-06-04T11:53:47;100956.00;;;26.47;42.50
63088;BME280;49173;43.164;27.786;2023-06-04T11:56:14;100956.84;;;26.55;41.45
63088;BME280;49173;43.164;27.786;2023-06-04T11:58:40;100961.69;;;26.53;42.79
63088;BME280;49173;43.164;27.786;2023-06-04T12:01:07;100963.56;;;26.61;42.94
63088;BME280;49173;43.164;27.786;2023-06-04T12:03:41;100960.63;;;26.79;40.80
63088;BME280;49173;43.164;27.786;2023-06-04T12:08:52;100956.00;;;26.71;39.87
63088;BME280;49173;43.164;27.786;2023-06-04T12:11:32;100953.22;;;26.63;40.55
63088;BME280;49173;43.164;27.786;2023-06-04T12:14:06;100958.25;;;26.51;40.64
63088;BME280;49173;43.164;27.786;2023-06-04T12:16:35;100949.66;;;26.46;40.31
63088;BME280;49173;43.164;27.786;2023-06-04T12:19:08;100956.69;;;26.49;40.17
63088;BME280;49173;43.164;27.786;2023-06-04T12:21:35;100949.84;;;26.45;40.22
63088;BME280;49173;43.164;27.786;2023-06-04T12:24:12;100942.75;;;26.34;39.94
63088;BME280;49173;43.164;27.786;2023-06-04T12:26:40;100938.78;;;26.28;40.30
63088;BME280;49173;43.164;27.786;2023-06-04T12:29:08;100944.13;;;26.30;39.53
63088;BME280;49173;43.164;27.786;2023-06-04T12:31:39;100940.00;;;26.26;40.47
63088;BME280;49173;43.164;27.786;2023-06-04T12:34:05;100948.59;;;26.31;40.63
63088;BME280;49173;43.164;27.786;2023-06-04T12:36:31;100942.06;;;26.24;40.67
63088;BME280;49173;43.164;27.786;2023-06-04T12:39:00;100938.78;;;26.28;41.62
63088;BME280;49173;43.164;27.786;2023-06-04T12:41:27;100943.78;;;26.33;41.60
63088;BME280;49173;43.164;27.786;2023-06-04T12:43:53;100949.81;;;26.37;41.12
63088;BME280;49173;43.164;27.786;2023-06-04T12:46:21;100943.09;;;26.31;41.73
63088;BME280;49173;43.164;27.786;2023-06-04T12:48:48;100946.19;;;26.20;41.02
63088;BME280;49173;43.164;27.786;2023-06-04T12:51:14;100943.25;;;26.21;41.59
63088;BME280;49173;43.164;27.786;2023-06-04T12:53:41;100938.59;;;26.14;41.60
63088;BME280;49173;43.164;27.786;2023-06-04T12:56:07;100951.69;;;26.04;41.58
63088;BME280;49173;43.164;27.786;2023-06-04T12:58:33;100947.13;;;25.70;41.92
63088;BME280;49173;43.164;27.786;2023-06-04T13:00:59;100947.66;;;25.65;42.13
63088;BME280;49173;43.164;27.786;2023-06-04T13:03:26;100952.59;;;25.62;43.04
63088;BME280;49173;43.164;27.786;2023-06-04T13:05:52;100956.50;;;25.51;42.82